KFFO/FFO METAR and TAF weather

Enter ICAO airport designator
Station Type Date Time Source
KFFO METAR 2020/01/17 18:56 UTC NOAA

KFFO 171856Z 09010KT 10SM FEW160 BKN200 00/M09 A3064 RMK AO2A SLP390 T10031095


Station Type Date Time Source
KFFO Decoded METAR 2020/01/17 18:56 UTC NOAA

Dayton / Wright-Patterson Air Force Base, OH, United States (KFFO) 39-50N 084-03W 251M
Jan 17, 2020 - 01:56 PM EST / 2020.01.17 1856 UTC
Wind: from the E (090 degrees) at 12 MPH (10 KT):0
Visibility: 10 mile(s):0
Sky conditions: mostly cloudy
Temperature: 31.5 F (-0.3 C)
Windchill: 23 F (-5 C):1
Dew Point: 14.9 F (-9.5 C)
Relative Humidity: 49%
Pressure (altimeter): 30.64 in. Hg (1037 hPa)
ob: KFFO 171856Z 09010KT 10SM FEW160 BKN200 00/M09 A3064 RMK AO2A SLP390 T10031095
cycle: 19

Station Type Date Time Source
KFFO TAF 2020/01/17 19:09 UTC NOAA

TAF KFFO 171900Z 1719/1901 10009KT 9999 FEW020 BKN150 OVC200 QNH3043INS
BECMG 1802/1803 12012KT 9999 SCT020 OVC060 620609 QNH3032INS
BECMG 1803/1804 16010G15KT 8000 -SNPL FEW005 BKN015 OVC040 620409 520202 QNH3005INS
TEMPO 1806/1809 16015G25KT 6000 -FZRA OVC010 690002 620609
BECMG 1808/1809 20015G25KT 9000 -RAPL OVC010 620906 QNH2982INS
BECMG 1809/1810 20015G25KT 4800 -RA BR OVC010 620906 QNH2982INS
BECMG 1815/1816 20020G30KT 4800 -RA BR OVC010 620906 510003 QNH2982INS
BECMG 1823/1824 20025G35KT 4800 -SHSN OVC010 610109 510003 QNH2976INS TX07/1819Z TNM01/1805Z

Example: see airport list